sensor_id;sensor_type;location;lat;lon;timestamp;P1;durP1;ratioP1;P2;durP2;ratioP2
20557;SDS011;10437;48.156;11.530;2023-09-07T00:01:29;7.15;;;4.00;;
20557;SDS011;10437;48.156;11.530;2023-09-07T00:03:56;8.02;;;3.80;;
20557;SDS011;10437;48.156;11.530;2023-09-07T00:06:23;6.05;;;3.92;;
20557;SDS011;10437;48.156;11.530;2023-09-07T00:08:51;7.45;;;3.50;;
20557;SDS011;10437;48.156;11.530;2023-09-07T00:11:20;5.90;;;3.80;;
20557;SDS011;10437;48.156;11.530;2023-09-07T00:13:46;8.63;;;4.05;;
20557;SDS011;10437;48.156;11.530;2023-09-07T00:16:15;8.15;;;4.30;;
20557;SDS011;10437;48.156;11.530;2023-09-07T00:18:42;6.78;;;4.13;;
20557;SDS011;10437;48.156;11.530;2023-09-07T00:21:09;5.32;;;3.92;;
20557;SDS011;10437;48.156;11.530;2023-09-07T00:23:36;7.10;;;4.22;;
20557;SDS011;10437;48.156;11.530;2023-09-07T00:26:04;6.05;;;4.07;;
20557;SDS011;10437;48.156;11.530;2023-09-07T00:28:33;7.20;;;4.05;;
20557;SDS011;10437;48.156;11.530;2023-09-07T00:31:00;8.15;;;4.40;;
20557;SDS011;10437;48.156;11.530;2023-09-07T00:33:27;6.18;;;4.45;;
20557;SDS011;10437;48.156;11.530;2023-09-07T00:35:54;9.20;;;4.70;;
20557;SDS011;10437;48.156;11.530;2023-09-07T00:38:21;7.13;;;4.20;;
20557;SDS011;10437;48.156;11.530;2023-09-07T00:40:48;6.63;;;4.10;;
20557;SDS011;10437;48.156;11.530;2023-09-07T00:43:15;7.43;;;4.75;;
20557;SDS011;10437;48.156;11.530;2023-09-07T00:45:44;8.82;;;4.25;;
20557;SDS011;10437;48.156;11.530;2023-09-07T00:48:11;7.20;;;4.47;;
20557;SDS011;10437;48.156;11.530;2023-09-07T00:50:39;6.85;;;4.28;;
20557;SDS011;10437;48.156;11.530;2023-09-07T00:53:06;6.80;;;4.70;;
20557;SDS011;10437;48.156;11.530;2023-09-07T00:55:33;8.52;;;4.85;;
20557;SDS011;10437;48.156;11.530;2023-09-07T00:58:01;6.00;;;4.35;;
20557;SDS011;10437;48.156;11.530;2023-09-07T01:00:28;6.15;;;4.20;;
20557;SDS011;10437;48.156;11.530;2023-09-07T01:02:57;4.97;;;3.70;;
20557;SDS011;10437;48.156;11.530;2023-09-07T01:05:24;8.65;;;4.57;;
20557;SDS011;10437;48.156;11.530;2023-09-07T01:07:57;9.05;;;4.55;;
20557;SDS011;10437;48.156;11.530;2023-09-07T01:10:28;6.95;;;4.40;;
20557;SDS011;10437;48.156;11.530;2023-09-07T01:12:55;8.00;;;4.50;;
20557;SDS011;10437;48.156;11.530;2023-09-07T01:15:23;5.65;;;3.97;;
20557;SDS011;10437;48.156;11.530;2023-09-07T01:17:50;6.85;;;4.63;;
20557;SDS011;10437;48.156;11.530;2023-09-07T01:20:18;8.10;;;4.63;;
20557;SDS011;10437;48.156;11.530;2023-09-07T01:22:48;7.95;;;4.70;;
20557;SDS011;10437;48.156;11.530;2023-09-07T01:25:15;7.93;;;4.65;;
20557;SDS011;10437;48.156;11.530;2023-09-07T01:27:43;7.65;;;4.82;;
20557;SDS011;10437;48.156;11.530;2023-09-07T01:30:10;8.45;;;4.38;;
20557;SDS011;10437;48.156;11.530;2023-09-07T01:32:38;7.65;;;4.65;;
20557;SDS011;10437;48.156;11.530;2023-09-07T01:35:06;7.63;;;5.05;;
20557;SDS011;10437;48.156;11.530;2023-09-07T01:37:36;7.82;;;4.53;;
20557;SDS011;10437;48.156;11.530;2023-09-07T01:40:05;6.45;;;4.40;;
20557;SDS011;10437;48.156;11.530;2023-09-07T01:42:33;8.35;;;4.88;;
20557;SDS011;10437;48.156;11.530;2023-09-07T01:45:00;6.47;;;4.72;;
20557;SDS011;10437;48.156;11.530;2023-09-07T01:47:28;7.25;;;4.55;;
20557;SDS011;10437;48.156;11.530;2023-09-07T01:49:55;6.32;;;4.57;;
20557;SDS011;10437;48.156;11.530;2023-09-07T01:52:22;7.07;;;4.45;;
20557;SDS011;10437;48.156;11.530;2023-09-07T01:54:49;7.40;;;5.25;;
20557;SDS011;10437;48.156;11.530;2023-09-07T01:57:18;6.53;;;4.35;;
20557;SDS011;10437;48.156;11.530;2023-09-07T01:59:45;6.72;;;4.45;;
20557;SDS011;10437;48.156;11.530;2023-09-07T02:02:13;8.65;;;5.22;;
20557;SDS011;10437;48.156;11.530;2023-09-07T02:04:40;9.82;;;4.57;;
20557;SDS011;10437;48.156;11.530;2023-09-07T02:07:10;9.02;;;4.68;;
20557;SDS011;10437;48.156;11.530;2023-09-07T02:09:38;8.32;;;4.55;;
20557;SDS011;10437;48.156;11.530;2023-09-07T02:12:05;7.50;;;5.03;;
20557;SDS011;10437;48.156;11.530;2023-09-07T02:14:34;11.80;;;4.93;;
20557;SDS011;10437;48.156;11.530;2023-09-07T02:17:00;6.93;;;4.90;;
20557;SDS011;10437;48.156;11.530;2023-09-07T02:19:27;8.32;;;5.00;;
20557;SDS011;10437;48.156;11.530;2023-09-07T02:21:55;7.88;;;5.03;;
20557;SDS011;10437;48.156;11.530;2023-09-07T02:24:22;8.48;;;5.10;;
20557;SDS011;10437;48.156;11.530;2023-09-07T02:26:49;8.07;;;5.22;;
20557;SDS011;10437;48.156;11.530;2023-09-07T02:29:16;10.15;;;5.13;;
20557;SDS011;10437;48.156;11.530;2023-09-07T02:31:44;8.57;;;5.47;;
20557;SDS011;10437;48.156;11.530;2023-09-07T02:34:11;7.85;;;5.28;;
20557;SDS011;10437;48.156;11.530;2023-09-07T02:36:38;8.20;;;5.30;;
20557;SDS011;10437;48.156;11.530;2023-09-07T02:39:05;8.40;;;5.35;;
20557;SDS011;10437;48.156;11.530;2023-09-07T02:41:33;8.43;;;5.00;;
20557;SDS011;10437;48.156;11.530;2023-09-07T02:44:00;10.70;;;4.95;;
20557;SDS011;10437;48.156;11.530;2023-09-07T02:46:28;7.30;;;4.85;;
20557;SDS011;10437;48.156;11.530;2023-09-07T02:48:57;10.25;;;5.30;;
20557;SDS011;10437;48.156;11.530;2023-09-07T02:51:24;8.82;;;5.22;;
20557;SDS011;10437;48.156;11.530;2023-09-07T02:53:51;7.82;;;4.82;;
20557;SDS011;10437;48.156;11.530;2023-09-07T02:56:18;7.22;;;4.88;;
20557;SDS011;10437;48.156;11.530;2023-09-07T02:58:45;8.88;;;5.03;;
20557;SDS011;10437;48.156;11.530;2023-09-07T03:01:13;7.43;;;5.03;;
20557;SDS011;10437;48.156;11.530;2023-09-07T03:03:44;8.70;;;5.10;;
20557;SDS011;10437;48.156;11.530;2023-09-07T03:06:13;7.50;;;5.00;;
20557;SDS011;10437;48.156;11.530;2023-09-07T03:08:41;9.23;;;5.18;;
20557;SDS011;10437;48.156;11.530;2023-09-07T03:11:08;8.45;;;4.85;;
20557;SDS011;10437;48.156;11.530;2023-09-07T03:13:36;7.20;;;4.82;;
20557;SDS011;10437;48.156;11.530;2023-09-07T03:16:04;6.50;;;5.05;;
20557;SDS011;10437;48.156;11.530;2023-09-07T03:18:31;8.35;;;5.00;;
20557;SDS011;10437;48.156;11.530;2023-09-07T03:20:59;5.88;;;4.60;;
20557;SDS011;10437;48.156;11.530;2023-09-07T03:23:29;7.07;;;4.57;;
20557;SDS011;10437;48.156;11.530;2023-09-07T03:25:56;7.18;;;4.95;;
20557;SDS011;10437;48.156;11.530;2023-09-07T03:28:23;7.65;;;5.10;;
20557;SDS011;10437;48.156;11.530;2023-09-07T03:30:51;7.63;;;4.80;;
20557;SDS011;10437;48.156;11.530;2023-09-07T03:33:18;6.82;;;5.03;;
20557;SDS011;10437;48.156;11.530;2023-09-07T03:35:45;7.93;;;4.65;;
20557;SDS011;10437;48.156;11.530;2023-09-07T03:38:12;7.93;;;5.35;;
20557;SDS011;10437;48.156;11.530;2023-09-07T03:40:41;7.20;;;4.78;;
20557;SDS011;10437;48.156;11.530;2023-09-07T03:43:08;7.85;;;5.00;;
20557;SDS011;10437;48.156;11.530;2023-09-07T03:45:35;6.93;;;5.15;;
20557;SDS011;10437;48.156;11.530;2023-09-07T03:48:03;7.47;;;4.90;;
20557;SDS011;10437;48.156;11.530;2023-09-07T03:50:30;9.70;;;4.97;;
20557;SDS011;10437;48.156;11.530;2023-09-07T03:52:57;6.68;;;4.65;;
20557;SDS011;10437;48.156;11.530;2023-09-07T03:55:24;8.23;;;5.28;;
20557;SDS011;10437;48.156;11.530;2023-09-07T03:57:53;8.90;;;5.05;;
20557;SDS011;10437;48.156;11.530;2023-09-07T04:00:20;6.50;;;4.78;;
20557;SDS011;10437;48.156;11.530;2023-09-07T04:02:48;7.00;;;4.80;;
20557;SDS011;10437;48.156;11.530;2023-09-07T04:05:15;9.55;;;5.50;;
20557;SDS011;10437;48.156;11.530;2023-09-07T04:07:42;8.15;;;4.90;;
20557;SDS011;10437;48.156;11.530;2023-09-07T04:10:09;7.28;;;4.63;;
20557;SDS011;10437;48.156;11.530;2023-09-07T04:12:36;8.85;;;5.25;;
20557;SDS011;10437;48.156;11.530;2023-09-07T04:15:05;9.90;;;5.38;;
20557;SDS011;10437;48.156;11.530;2023-09-07T04:17:33;10.45;;;5.15;;
20557;SDS011;10437;48.156;11.530;2023-09-07T04:20:05;6.13;;;4.70;;
20557;SDS011;10437;48.156;11.530;2023-09-07T04:22:33;9.95;;;5.18;;
20557;SDS011;10437;48.156;11.530;2023-09-07T04:25:00;7.80;;;5.03;;
20557;SDS011;10437;48.156;11.530;2023-09-07T04:27:27;9.65;;;5.40;;
20557;SDS011;10437;48.156;11.530;2023-09-07T04:29:55;8.50;;;5.00;;
20557;SDS011;10437;48.156;11.530;2023-09-07T04:32:23;8.70;;;5.30;;
20557;SDS011;10437;48.156;11.530;2023-09-07T04:34:52;7.78;;;5.10;;
20557;SDS011;10437;48.156;11.530;2023-09-07T04:37:22;7.82;;;5.13;;
20557;SDS011;10437;48.156;11.530;2023-09-07T04:39:50;12.82;;;5.78;;
20557;SDS011;10437;48.156;11.530;2023-09-07T04:42:17;8.88;;;5.72;;
20557;SDS011;10437;48.156;11.530;2023-09-07T04:44:44;7.80;;;5.65;;
20557;SDS011;10437;48.156;11.530;2023-09-07T04:47:12;12.23;;;6.20;;
20557;SDS011;10437;48.156;11.530;2023-09-07T04:49:40;10.82;;;5.63;;
20557;SDS011;10437;48.156;11.530;2023-09-07T04:52:07;9.10;;;5.65;;
20557;SDS011;10437;48.156;11.530;2023-09-07T04:54:34;10.07;;;5.90;;
20557;SDS011;10437;48.156;11.530;2023-09-07T04:57:01;9.52;;;5.78;;
20557;SDS011;10437;48.156;11.530;2023-09-07T04:59:28;11.95;;;6.03;;
20557;SDS011;10437;48.156;11.530;2023-09-07T05:01:58;11.38;;;5.97;;
20557;SDS011;10437;48.156;11.530;2023-09-07T05:04:26;8.65;;;5.50;;
20557;SDS011;10437;48.156;11.530;2023-09-07T05:06:55;9.82;;;6.15;;
20557;SDS011;10437;48.156;11.530;2023-09-07T05:09:22;9.07;;;5.88;;
20557;SDS011;10437;48.156;11.530;2023-09-07T05:11:50;11.23;;;6.03;;
20557;SDS011;10437;48.156;11.530;2023-09-07T05:14:18;10.25;;;6.28;;
20557;SDS011;10437;48.156;11.530;2023-09-07T05:16:45;9.68;;;5.38;;
20557;SDS011;10437;48.156;11.530;2023-09-07T05:19:13;12.20;;;5.93;;
20557;SDS011;10437;48.156;11.530;2023-09-07T05:21:40;11.30;;;5.95;;
20557;SDS011;10437;48.156;11.530;2023-09-07T05:24:08;13.13;;;6.00;;
20557;SDS011;10437;48.156;11.530;2023-09-07T05:26:35;8.52;;;5.70;;
20557;SDS011;10437;48.156;11.530;2023-09-07T05:29:02;9.57;;;5.75;;
20557;SDS011;10437;48.156;11.530;2023-09-07T05:31:29;9.02;;;5.57;;
20557;SDS011;10437;48.156;11.530;2023-09-07T05:33:57;9.45;;;5.30;;
20557;SDS011;10437;48.156;11.530;2023-09-07T05:36:24;9.02;;;5.75;;
20557;SDS011;10437;48.156;11.530;2023-09-07T05:38:52;10.48;;;6.20;;
20557;SDS011;10437;48.156;11.530;2023-09-07T05:41:20;9.45;;;5.60;;
20557;SDS011;10437;48.156;11.530;2023-09-07T05:43:47;15.07;;;6.35;;
20557;SDS011;10437;48.156;11.530;2023-09-07T05:46:14;11.57;;;6.50;;
20557;SDS011;10437;48.156;11.530;2023-09-07T05:48:42;11.00;;;6.20;;
20557;SDS011;10437;48.156;11.530;2023-09-07T05:51:09;13.82;;;6.07;;
20557;SDS011;10437;48.156;11.530;2023-09-07T05:53:36;10.02;;;6.32;;
20557;SDS011;10437;48.156;11.530;2023-09-07T05:56:03;10.55;;;6.63;;
20557;SDS011;10437;48.156;11.530;2023-09-07T05:58:32;13.93;;;6.70;;
20557;SDS011;10437;48.156;11.530;2023-09-07T06:00:59;9.68;;;6.55;;
20557;SDS011;10437;48.156;11.530;2023-09-07T06:03:26;13.43;;;7.05;;
20557;SDS011;10437;48.156;11.530;2023-09-07T06:05:53;14.02;;;6.80;;
20557;SDS011;10437;48.156;11.530;2023-09-07T06:08:20;16.25;;;7.22;;
20557;SDS011;10437;48.156;11.530;2023-09-07T06:10:47;13.32;;;6.90;;
20557;SDS011;10437;48.156;11.530;2023-09-07T06:13:14;14.23;;;7.63;;
20557;SDS011;10437;48.156;11.530;2023-09-07T06:15:43;11.48;;;7.10;;
20557;SDS011;10437;48.156;11.530;2023-09-07T06:18:10;12.07;;;6.88;;
20557;SDS011;10437;48.156;11.530;2023-09-07T06:20:37;12.77;;;6.90;;
20557;SDS011;10437;48.156;11.530;2023-09-07T06:23:04;12.77;;;6.35;;
20557;SDS011;10437;48.156;11.530;2023-09-07T06:25:31;15.00;;;7.22;;
20557;SDS011;10437;48.156;11.530;2023-09-07T06:27:58;14.10;;;7.78;;
20557;SDS011;10437;48.156;11.530;2023-09-07T06:30:25;14.90;;;7.93;;
20557;SDS011;10437;48.156;11.530;2023-09-07T06:32:53;15.43;;;8.10;;
20557;SDS011;10437;48.156;11.530;2023-09-07T06:35:21;18.42;;;8.27;;
20557;SDS011;10437;48.156;11.530;2023-09-07T06:37:48;15.00;;;8.13;;
20557;SDS011;10437;48.156;11.530;2023-09-07T06:40:16;15.65;;;7.65;;
20557;SDS011;10437;48.156;11.530;2023-09-07T06:42:43;12.98;;;7.53;;
20557;SDS011;10437;48.156;11.530;2023-09-07T06:45:10;15.82;;;7.88;;
20557;SDS011;10437;48.156;11.530;2023-09-07T06:47:37;13.35;;;7.57;;
20557;SDS011;10437;48.156;11.530;2023-09-07T06:50:06;15.55;;;7.70;;
20557;SDS011;10437;48.156;11.530;2023-09-07T06:52:33;14.05;;;8.00;;
20557;SDS011;10437;48.156;11.530;2023-09-07T06:55:00;17.80;;;8.25;;
20557;SDS011;10437;48.156;11.530;2023-09-07T06:57:27;10.63;;;7.30;;
20557;SDS011;10437;48.156;11.530;2023-09-07T06:59:54;12.88;;;7.38;;
20557;SDS011;10437;48.156;11.530;2023-09-07T07:02:21;11.38;;;7.15;;
20557;SDS011;10437;48.156;11.530;2023-09-07T07:04:49;11.73;;;7.03;;
20557;SDS011;10437;48.156;11.530;2023-09-07T07:07:17;10.05;;;6.93;;
20557;SDS011;10437;48.156;11.530;2023-09-07T07:09:44;15.10;;;7.13;;
20557;SDS011;10437;48.156;11.530;2023-09-07T07:12:11;13.50;;;7.03;;
20557;SDS011;10437;48.156;11.530;2023-09-07T07:14:38;13.48;;;6.93;;
20557;SDS011;10437;48.156;11.530;2023-09-07T07:17:05;14.95;;;6.85;;
20557;SDS011;10437;48.156;11.530;2023-09-07T07:19:32;13.73;;;6.90;;
20557;SDS011;10437;48.156;11.530;2023-09-07T07:22:00;19.17;;;7.13;;
20557;SDS011;10437;48.156;11.530;2023-09-07T07:24:29;15.75;;;6.80;;
20557;SDS011;10437;48.156;11.530;2023-09-07T07:26:56;14.00;;;6.63;;
20557;SDS011;10437;48.156;11.530;2023-09-07T07:29:23;12.38;;;6.68;;
20557;SDS011;10437;48.156;11.530;2023-09-07T07:31:50;14.60;;;7.10;;
20557;SDS011;10437;48.156;11.530;2023-09-07T07:34:17;9.40;;;6.10;;
20557;SDS011;10437;48.156;11.530;2023-09-07T07:36:44;12.95;;;6.32;;
20557;SDS011;10437;48.156;11.530;2023-09-07T07:39:11;9.15;;;5.68;;
20557;SDS011;10437;48.156;11.530;2023-09-07T07:41:42;10.80;;;6.50;;
20557;SDS011;10437;48.156;11.530;2023-09-07T07:44:10;11.15;;;6.97;;
20557;SDS011;10437;48.156;11.530;2023-09-07T07:46:37;9.88;;;6.22;;
20557;SDS011;10437;48.156;11.530;2023-09-07T07:49:04;9.10;;;5.90;;
20557;SDS011;10437;48.156;11.530;2023-09-07T07:51:32;10.40;;;5.97;;
20557;SDS011;10437;48.156;11.530;2023-09-07T07:53:59;11.18;;;5.60;;
20557;SDS011;10437;48.156;11.530;2023-09-07T07:56:26;8.40;;;5.70;;
20557;SDS011;10437;48.156;11.530;2023-09-07T07:58:55;7.78;;;5.90;;
20557;SDS011;10437;48.156;11.530;2023-09-07T08:01:22;9.73;;;5.80;;
20557;SDS011;10437;48.156;11.530;2023-09-07T08:03:51;10.63;;;5.95;;
20557;SDS011;10437;48.156;11.530;2023-09-07T08:06:18;9.23;;;5.88;;
20557;SDS011;10437;48.156;11.530;2023-09-07T08:08:45;9.18;;;5.57;;
20557;SDS011;10437;48.156;11.530;2023-09-07T08:11:12;12.18;;;6.50;;
20557;SDS011;10437;48.156;11.530;2023-09-07T08:13:39;10.43;;;5.40;;
20557;SDS011;10437;48.156;11.530;2023-09-07T08:16:10;8.75;;;6.00;;
20557;SDS011;10437;48.156;11.530;2023-09-07T08:18:37;11.60;;;6.15;;
20557;SDS011;10437;48.156;11.530;2023-09-07T08:21:05;9.05;;;5.70;;
20557;SDS011;10437;48.156;11.530;2023-09-07T08:23:33;18.55;;;5.85;;
20557;SDS011;10437;48.156;11.530;2023-09-07T08:26:00;7.97;;;5.88;;
20557;SDS011;10437;48.156;11.530;2023-09-07T08:28:28;10.57;;;5.60;;
20557;SDS011;10437;48.156;11.530;2023-09-07T08:30:55;9.60;;;5.00;;
20557;SDS011;10437;48.156;11.530;2023-09-07T08:33:25;10.07;;;5.50;;
20557;SDS011;10437;48.156;11.530;2023-09-07T08:35:54;10.43;;;4.80;;
20557;SDS011;10437;48.156;11.530;2023-09-07T08:38:22;12.38;;;5.05;;
20557;SDS011;10437;48.156;11.530;2023-09-07T08:40:52;9.25;;;5.47;;
20557;SDS011;10437;48.156;11.530;2023-09-07T08:43:20;8.90;;;5.53;;
20557;SDS011;10437;48.156;11.530;2023-09-07T08:45:49;12.25;;;5.90;;
20557;SDS011;10437;48.156;11.530;2023-09-07T08:48:25;6.93;;;5.30;;
20557;SDS011;10437;48.156;11.530;2023-09-07T08:50:52;7.70;;;5.20;;
20557;SDS011;10437;48.156;11.530;2023-09-07T08:53:20;9.65;;;5.65;;
20557;SDS011;10437;48.156;11.530;2023-09-07T08:55:47;8.75;;;5.25;;
20557;SDS011;10437;48.156;11.530;2023-09-07T08:58:14;12.38;;;6.32;;
20557;SDS011;10437;48.156;11.530;2023-09-07T09:00:42;9.10;;;5.95;;
20557;SDS011;10437;48.156;11.530;2023-09-07T09:03:09;7.80;;;5.38;;
20557;SDS011;10437;48.156;11.530;2023-09-07T09:05:40;9.98;;;5.85;;
20557;SDS011;10437;48.156;11.530;2023-09-07T09:08:07;11.32;;;5.45;;
20557;SDS011;10437;48.156;11.530;2023-09-07T09:10:37;12.75;;;5.65;;
20557;SDS011;10437;48.156;11.530;2023-09-07T09:13:05;9.30;;;5.60;;
20557;SDS011;10437;48.156;11.530;2023-09-07T09:15:34;8.40;;;5.57;;
20557;SDS011;10437;48.156;11.530;2023-09-07T09:18:10;8.45;;;5.63;;
20557;SDS011;10437;48.156;11.530;2023-09-07T09:20:40;12.80;;;5.78;;
20557;SDS011;10437;48.156;11.530;2023-09-07T09:23:07;9.40;;;6.05;;
20557;SDS011;10437;48.156;11.530;2023-09-07T09:25:34;6.80;;;5.50;;
20557;SDS011;10437;48.156;11.530;2023-09-07T09:28:01;12.88;;;5.65;;
20557;SDS011;10437;48.156;11.530;2023-09-07T09:30:28;11.27;;;5.78;;
20557;SDS011;10437;48.156;11.530;2023-09-07T09:32:55;9.55;;;5.10;;
20557;SDS011;10437;48.156;11.530;2023-09-07T09:35:25;6.40;;;4.68;;
20557;SDS011;10437;48.156;11.530;2023-09-07T09:37:56;8.30;;;5.65;;
20557;SDS011;10437;48.156;11.530;2023-09-07T09:40:29;8.32;;;5.10;;
20557;SDS011;10437;48.156;11.530;2023-09-07T09:42:56;13.05;;;5.15;;
20557;SDS011;10437;48.156;11.530;2023-09-07T09:45:26;16.13;;;5.70;;
20557;SDS011;10437;48.156;11.530;2023-09-07T09:47:54;9.93;;;5.05;;
20557;SDS011;10437;48.156;11.530;2023-09-07T09:50:22;9.32;;;5.25;;
20557;SDS011;10437;48.156;11.530;2023-09-07T09:52:50;10.88;;;5.53;;
20557;SDS011;10437;48.156;11.530;2023-09-07T09:55:19;11.68;;;5.50;;
20557;SDS011;10437;48.156;11.530;2023-09-07T09:57:46;8.77;;;5.22;;
20557;SDS011;10437;48.156;11.530;2023-09-07T10:00:13;8.60;;;4.90;;
20557;SDS011;10437;48.156;11.530;2023-09-07T10:02:54;10.40;;;5.20;;
20557;SDS011;10437;48.156;11.530;2023-09-07T10:05:26;10.27;;;5.55;;
20557;SDS011;10437;48.156;11.530;2023-09-07T10:07:59;10.20;;;5.60;;
20557;SDS011;10437;48.156;11.530;2023-09-07T10:10:33;7.95;;;5.20;;
20557;SDS011;10437;48.156;11.530;2023-09-07T10:13:01;11.02;;;5.22;;
20557;SDS011;10437;48.156;11.530;2023-09-07T10:15:30;8.88;;;5.70;;
20557;SDS011;10437;48.156;11.530;2023-09-07T10:18:08;10.88;;;6.30;;
20557;SDS011;10437;48.156;11.530;2023-09-07T10:23:34;13.27;;;5.65;;
20557;SDS011;10437;48.156;11.530;2023-09-07T10:26:04;8.65;;;4.95;;
20557;SDS011;10437;48.156;11.530;2023-09-07T10:28:31;7.65;;;5.50;;
20557;SDS011;10437;48.156;11.530;2023-09-07T10:31:02;7.20;;;4.70;;
20557;SDS011;10437;48.156;11.530;2023-09-07T10:33:29;8.15;;;4.82;;
20557;SDS011;10437;48.156;11.530;2023-09-07T10:35:57;10.82;;;5.10;;
20557;SDS011;10437;48.156;11.530;2023-09-07T10:38:24;10.77;;;5.40;;
20557;SDS011;10437;48.156;11.530;2023-09-07T10:40:54;9.70;;;5.15;;
20557;SDS011;10437;48.156;11.530;2023-09-07T10:43:25;8.10;;;5.28;;
20557;SDS011;10437;48.156;11.530;2023-09-07T10:45:52;8.93;;;5.45;;
20557;SDS011;10437;48.156;11.530;2023-09-07T10:48:19;7.45;;;5.07;;
20557;SDS011;10437;48.156;11.530;2023-09-07T10:50:47;8.20;;;5.40;;
20557;SDS011;10437;48.156;11.530;2023-09-07T10:53:23;7.72;;;5.05;;
20557;SDS011;10437;48.156;11.530;2023-09-07T10:55:52;8.02;;;4.60;;
20557;SDS011;10437;48.156;11.530;2023-09-07T10:58:30;8.30;;;5.38;;
20557;SDS011;10437;48.156;11.530;2023-09-07T11:00:58;9.10;;;5.15;;
20557;SDS011;10437;48.156;11.530;2023-09-07T11:03:25;9.18;;;5.38;;
20557;SDS011;10437;48.156;11.530;2023-09-07T11:05:53;9.18;;;5.75;;
20557;SDS011;10437;48.156;11.530;2023-09-07T11:08:23;11.85;;;5.70;;
20557;SDS011;10437;48.156;11.530;2023-09-07T11:10:50;7.80;;;4.97;;
20557;SDS011;10437;48.156;11.530;2023-09-07T11:13:17;8.10;;;5.40;;
20557;SDS011;10437;48.156;11.530;2023-09-07T11:15:46;11.25;;;4.78;;
20557;SDS011;10437;48.156;11.530;2023-09-07T11:18:13;26.35;;;8.15;;
20557;SDS011;10437;48.156;11.530;2023-09-07T11:20:40;11.07;;;5.95;;
20557;SDS011;10437;48.156;11.530;2023-09-07T11:23:08;19.55;;;9.15;;
20557;SDS011;10437;48.156;11.530;2023-09-07T11:25:35;18.42;;;5.25;;
20557;SDS011;10437;48.156;11.530;2023-09-07T11:28:03;7.20;;;5.00;;
20557;SDS011;10437;48.156;11.530;2023-09-07T11:30:30;7.90;;;4.75;;
20557;SDS011;10437;48.156;11.530;2023-09-07T11:33:03;8.07;;;4.90;;
20557;SDS011;10437;48.156;11.530;2023-09-07T11:35:31;12.82;;;4.70;;
20557;SDS011;10437;48.156;11.530;2023-09-07T11:37:59;9.13;;;5.20;;
20557;SDS011;10437;48.156;11.530;2023-09-07T11:40:26;6.60;;;4.50;;
20557;SDS011;10437;48.156;11.530;2023-09-07T11:42:53;10.90;;;4.70;;
20557;SDS011;10437;48.156;11.530;2023-09-07T11:45:21;10.98;;;4.53;;
20557;SDS011;10437;48.156;11.530;2023-09-07T11:47:48;8.93;;;4.80;;
20557;SDS011;10437;48.156;11.530;2023-09-07T11:50:17;8.55;;;4.63;;
20557;SDS011;10437;48.156;11.530;2023-09-07T11:52:45;5.43;;;4.35;;
20557;SDS011;10437;48.156;11.530;2023-09-07T11:55:13;14.23;;;4.72;;
20557;SDS011;10437;48.156;11.530;2023-09-07T11:57:40;8.45;;;4.32;;
20557;SDS011;10437;48.156;11.530;2023-09-07T12:00:08;7.85;;;5.05;;
20557;SDS011;10437;48.156;11.530;2023-09-07T12:02:36;8.18;;;4.93;;
20557;SDS011;10437;48.156;11.530;2023-09-07T12:05:04;8.13;;;4.53;;
20557;SDS011;10437;48.156;11.530;2023-09-07T12:07:34;11.23;;;4.22;;
20557;SDS011;10437;48.156;11.530;2023-09-07T12:10:01;9.27;;;4.63;;
20557;SDS011;10437;48.156;11.530;2023-09-07T12:12:28;7.25;;;4.97;;
20557;SDS011;10437;48.156;11.530;2023-09-07T12:14:55;11.68;;;4.72;;
20557;SDS011;10437;48.156;11.530;2023-09-07T12:17:22;12.18;;;5.57;;
20557;SDS011;10437;48.156;11.530;2023-09-07T12:19:49;9.15;;;4.43;;
20557;SDS011;10437;48.156;11.530;2023-09-07T12:22:17;14.27;;;4.72;;
20557;SDS011;10437;48.156;11.530;2023-09-07T12:24:45;21.83;;;5.45;;
20557;SDS011;10437;48.156;11.530;2023-09-07T12:27:12;21.55;;;5.70;;
20557;SDS011;10437;48.156;11.530;2023-09-07T12:29:39;16.90;;;5.10;;
20557;SDS011;10437;48.156;11.530;2023-09-07T12:32:06;9.90;;;4.82;;
20557;SDS011;10437;48.156;11.530;2023-09-07T12:34:34;11.43;;;4.25;;
20557;SDS011;10437;48.156;11.530;2023-09-07T12:37:01;11.00;;;4.60;;
20557;SDS011;10437;48.156;11.530;2023-09-07T12:39:29;21.25;;;5.60;;
20557;SDS011;10437;48.156;11.530;2023-09-07T12:41:58;21.08;;;4.75;;
20557;SDS011;10437;48.156;11.530;2023-09-07T12:44:24;19.95;;;5.30;;
20557;SDS011;10437;48.156;11.530;2023-09-07T12:46:52;21.10;;;5.28;;
20557;SDS011;10437;48.156;11.530;2023-09-07T12:49:19;20.48;;;5.18;;
20557;SDS011;10437;48.156;11.530;2023-09-07T12:51:46;13.57;;;4.38;;
20557;SDS011;10437;48.156;11.530;2023-09-07T12:54:13;34.33;;;5.97;;
20557;SDS011;10437;48.156;11.530;2023-09-07T12:56:40;8.10;;;4.30;;
20557;SDS011;10437;48.156;11.530;2023-09-07T12:59:08;16.05;;;4.53;;
20557;SDS011;10437;48.156;11.530;2023-09-07T13:01:35;6.05;;;4.40;;
20557;SDS011;10437;48.156;11.530;2023-09-07T13:04:03;12.10;;;4.85;;
20557;SDS011;10437;48.156;11.530;2023-09-07T13:06:30;10.40;;;4.72;;
20557;SDS011;10437;48.156;11.530;2023-09-07T13:08:57;7.22;;;4.30;;
20557;SDS011;10437;48.156;11.530;2023-09-07T13:11:24;7.20;;;4.32;;
20557;SDS011;10437;48.156;11.530;2023-09-07T13:13:51;6.15;;;3.95;;
20557;SDS011;10437;48.156;11.530;2023-09-07T13:16:20;7.28;;;4.05;;
20557;SDS011;10437;48.156;11.530;2023-09-07T13:18:46;5.32;;;4.50;;
20557;SDS011;10437;48.156;11.530;2023-09-07T13:21:14;6.70;;;3.78;;
20557;SDS011;10437;48.156;11.530;2023-09-07T13:23:41;5.60;;;3.97;;
20557;SDS011;10437;48.156;11.530;2023-09-07T13:26:08;11.00;;;4.47;;
20557;SDS011;10437;48.156;11.530;2023-09-07T13:28:36;11.80;;;4.25;;
20557;SDS011;10437;48.156;11.530;2023-09-07T13:31:04;5.95;;;3.72;;
20557;SDS011;10437;48.156;11.530;2023-09-07T13:33:32;6.88;;;4.00;;
20557;SDS011;10437;48.156;11.530;2023-09-07T13:35:59;5.95;;;4.00;;
20557;SDS011;10437;48.156;11.530;2023-09-07T13:38:27;6.68;;;3.95;;
20557;SDS011;10437;48.156;11.530;2023-09-07T13:40:54;5.43;;;3.65;;
20557;SDS011;10437;48.156;11.530;2023-09-07T13:43:21;7.05;;;3.42;;
20557;SDS011;10437;48.156;11.530;2023-09-07T13:45:48;8.35;;;3.75;;
20557;SDS011;10437;48.156;11.530;2023-09-07T13:48:15;4.45;;;3.35;;
20557;SDS011;10437;48.156;11.530;2023-09-07T13:50:44;7.55;;;3.88;;
20557;SDS011;10437;48.156;11.530;2023-09-07T13:53:12;6.75;;;3.45;;
20557;SDS011;10437;48.156;11.530;2023-09-07T13:55:39;4.90;;;3.58;;
20557;SDS011;10437;48.156;11.530;2023-09-07T13:58:07;8.23;;;3.35;;
20557;SDS011;10437;48.156;11.530;2023-09-07T14:00:34;6.32;;;3.47;;
20557;SDS011;10437;48.156;11.530;2023-09-07T14:03:01;6.80;;;3.25;;
20557;SDS011;10437;48.156;11.530;2023-09-07T14:05:28;4.68;;;3.35;;
20557;SDS011;10437;48.156;11.530;2023-09-07T14:07:57;4.75;;;3.25;;
20557;SDS011;10437;48.156;11.530;2023-09-07T14:10:23;10.55;;;3.72;;
20557;SDS011;10437;48.156;11.530;2023-09-07T14:12:51;6.25;;;3.40;;
20557;SDS011;10437;48.156;11.530;2023-09-07T14:15:18;5.80;;;3.30;;
20557;SDS011;10437;48.156;11.530;2023-09-07T14:17:45;4.80;;;3.45;;
20557;SDS011;10437;48.156;11.530;2023-09-07T14:20:12;8.77;;;3.50;;
20557;SDS011;10437;48.156;11.530;2023-09-07T14:22:39;4.95;;;3.55;;
20557;SDS011;10437;48.156;11.530;2023-09-07T14:25:08;6.20;;;3.55;;
20557;SDS011;10437;48.156;11.530;2023-09-07T14:27:35;6.43;;;3.85;;
20557;SDS011;10437;48.156;11.530;2023-09-07T14:30:02;4.03;;;3.30;;
20557;SDS011;10437;48.156;11.530;2023-09-07T14:32:29;6.35;;;3.50;;
20557;SDS011;10437;48.156;11.530;2023-09-07T14:34:57;5.30;;;3.28;;
20557;SDS011;10437;48.156;11.530;2023-09-07T14:37:24;5.53;;;3.42;;